Time;durP1;ratioP1;P1;durP2;ratioP2;P2;SDS_P1;SDS_P2;PMS_P1;PMS_P2;Temp;Humidity;BMP_temperature;BMP_pressure;BME280_temperature;BME280_humidity;BME280_pressure;Samples;Min_cycle;Max_cycle;Signal;HPM_P1;HPM_P2
2020/12/18 00:00:33;;;;;;;25.52;16.38;;;7.00;93.00;;;;;;5064523;28;20399;-79
2020/12/18 00:02:59;;;;;;;24.67;16.20;;;7.00;93.10;;;;;;5048632;28;20028;-78
2020/12/18 00:05:24;;;;;;;27.83;17.45;;;7.00;93.10;;;;;;5043618;28;20098;-78
2020/12/18 00:07:50;;;;;;;29.98;16.60;;;7.00;93.10;;;;;;5038482;28;20038;-77
2020/12/18 00:10:16;;;;;;;28.23;16.58;;;7.00;93.10;;;;;;5039779;28;20483;-78
2020/12/18 00:12:41;;;;;;;28.92;16.73;;;7.00;93.20;;;;;;5042497;28;20033;-78
2020/12/18 00:15:07;;;;;;;32.25;16.67;;;7.00;93.20;;;;;;5043919;28;20596;-79
2020/12/18 00:17:33;;;;;;;26.73;16.13;;;7.00;93.30;;;;;;5050859;28;20086;-78
2020/12/18 00:19:58;;;;;;;29.05;16.67;;;7.00;93.30;;;;;;5047028;28;20037;-78
2020/12/18 00:22:24;;;;;;;33.17;17.20;;;7.00;93.30;;;;;;5046552;28;20033;-77
2020/12/18 00:24:50;;;;;;;32.90;16.48;;;6.90;93.20;;;;;;5044401;28;20175;-80
2020/12/18 00:27:16;;;;;;;32.55;17.33;;;6.90;93.30;;;;;;5044754;28;20455;-77
2020/12/18 00:29:41;;;;;;;36.22;16.30;;;6.90;93.40;;;;;;5050286;28;20056;-78
2020/12/18 00:32:07;;;;;;;30.63;17.05;;;6.90;93.40;;;;;;5052252;28;20037;-79
2020/12/18 00:34:32;;;;;;;35.42;17.40;;;6.90;93.40;;;;;;5047664;28;20032;-78
2020/12/18 00:36:58;;;;;;;28.90;17.90;;;6.90;93.40;;;;;;5045181;28;20036;-84
2020/12/18 00:39:24;;;;;;;33.53;17.02;;;6.90;93.50;;;;;;5044212;28;20025;-77
2020/12/18 00:41:56;;;;;;;34.40;17.05;;;6.90;93.50;;;;;;5044810;28;20044;-78
2020/12/18 00:44:21;;;;;;;32.90;17.60;;;6.90;93.60;;;;;;5047154;28;20029;-81
2020/12/18 00:46:47;;;;;;;29.17;17.30;;;6.90;93.70;;;;;;5046226;28;20503;-77
2020/12/18 00:49:14;;;;;;;26.65;16.00;;;6.90;93.60;;;;;;5045835;28;20037;-79
2020/12/18 00:51:39;;;;;;;30.67;15.73;;;6.90;93.60;;;;;;5040378;28;20037;-78
2020/12/18 00:54:05;;;;;;;30.75;16.92;;;6.90;93.60;;;;;;5043488;28;20400;-78
2020/12/18 00:56:31;;;;;;;32.28;17.73;;;6.90;93.60;;;;;;5038425;28;20533;-78
2020/12/18 00:58:56;;;;;;;32.00;17.10;;;6.90;93.70;;;;;;5047933;28;20427;-79
2020/12/18 01:01:22;;;;;;;32.40;17.05;;;7.00;93.60;;;;;;5043006;28;20401;-81
2020/12/18 01:03:48;;;;;;;27.77;16.05;;;6.90;93.60;;;;;;5046449;28;20029;-77
2020/12/18 01:06:14;;;;;;;29.55;15.73;;;6.90;93.60;;;;;;5047960;28;20531;-77
2020/12/18 01:08:40;;;;;;;30.90;16.67;;;6.90;93.60;;;;;;5044523;28;20040;-77
2020/12/18 01:11:06;;;;;;;27.75;16.20;;;6.90;93.70;;;;;;5043925;28;20427;-78
2020/12/18 01:13:33;;;;;;;35.03;18.08;;;7.00;93.70;;;;;;5053845;28;20467;-79
2020/12/18 01:16:00;;;;;;;35.55;17.13;;;7.00;93.70;;;;;;5033285;28;20113;-78
2020/12/18 01:18:26;;;;;;;28.70;16.20;;;7.00;93.70;;;;;;5045467;28;20064;-77
2020/12/18 01:20:52;;;;;;;30.10;16.25;;;7.00;93.60;;;;;;5043957;28;20068;-84
2020/12/18 01:23:19;;;;;;;35.88;16.08;;;7.00;93.70;;;;;;5039913;28;20037;-77
2020/12/18 01:25:45;;;;;;;26.40;15.10;;;7.00;93.70;;;;;;5041283;28;20434;-77
2020/12/18 01:28:11;;;;;;;33.80;16.42;;;7.10;93.60;;;;;;5060560;28;20586;-80
2020/12/18 01:30:37;;;;;;;28.33;16.17;;;7.00;93.70;;;;;;5055115;28;20044;-77
2020/12/18 01:33:03;;;;;;;28.67;15.68;;;7.00;93.70;;;;;;5061631;28;20028;-78
2020/12/18 01:35:29;;;;;;;32.50;16.25;;;7.10;93.70;;;;;;5058930;28;20037;-77
2020/12/18 01:37:58;;;;;;;32.53;17.02;;;7.10;93.70;;;;;;5052761;28;20025;-86
2020/12/18 01:40:24;;;;;;;30.13;16.77;;;7.20;93.80;;;;;;5044937;28;20076;-78
2020/12/18 01:42:49;;;;;;;31.80;17.52;;;7.20;93.80;;;;;;5034977;28;20120;-78
2020/12/18 01:45:15;;;;;;;31.27;19.02;;;7.20;93.70;;;;;;5040169;28;20873;-80
2020/12/18 01:47:42;;;;;;;29.27;18.95;;;7.30;93.70;;;;;;5039252;28;20059;-78
2020/12/18 01:50:08;;;;;;;31.15;18.83;;;7.20;93.60;;;;;;5040090;28;20563;-77
2020/12/18 01:52:34;;;;;;;34.88;21.15;;;7.30;93.50;;;;;;5047946;28;20067;-77
2020/12/18 01:55:05;;;;;;;33.72;19.05;;;7.30;93.60;;;;;;5045522;28;20059;-78
2020/12/18 01:57:32;;;;;;;33.63;20.90;;;7.40;93.50;;;;;;5070171;28;20028;-77
2020/12/18 02:00:00;;;;;;;33.42;19.65;;;7.40;93.50;;;;;;5064100;28;20108;-77
2020/12/18 02:02:26;;;;;;;36.47;21.23;;;7.40;93.50;;;;;;5069325;28;20037;-78
2020/12/18 02:04:51;;;;;;;38.53;22.00;;;7.40;93.50;;;;;;5067917;28;20506;-80
2020/12/18 02:07:23;;;;;;;39.33;20.50;;;7.40;93.50;;;;;;5061755;28;20032;-77
2020/12/18 02:09:49;;;;;;;39.65;21.85;;;7.40;93.50;;;;;;5060852;28;20059;-78
2020/12/18 02:12:15;;;;;;;36.55;21.75;;;7.50;93.40;;;;;;5059445;28;20281;-77
2020/12/18 02:14:41;;;;;;;36.38;21.33;;;7.40;93.40;;;;;;5069299;28;20862;-78
2020/12/18 02:17:07;;;;;;;38.15;22.55;;;7.50;93.50;;;;;;5071226;28;20119;-77
2020/12/18 02:19:34;;;;;;;36.13;21.42;;;7.50;93.40;;;;;;5070290;28;20119;-77
2020/12/18 02:22:17;;;;;;;34.42;21.35;;;7.50;93.40;;;;;;5072469;28;20479;-77
2020/12/18 02:25:07;;;;;;;37.53;22.83;;;7.40;93.40;;;;;;5068451;28;20483;-77
2020/12/18 02:27:34;;;;;;;38.20;21.77;;;7.50;93.40;;;;;;5070495;28;20075;-77
2020/12/18 02:30:00;;;;;;;35.38;21.45;;;7.50;93.40;;;;;;5071411;28;20417;-77
2020/12/18 02:32:26;;;;;;;36.70;21.95;;;7.50;93.30;;;;;;5054178;28;20427;-78
2020/12/18 02:34:52;;;;;;;36.75;22.17;;;7.50;93.40;;;;;;5061456;28;20032;-78
2020/12/18 02:37:18;;;;;;;39.67;22.80;;;7.60;93.50;;;;;;5069128;28;20040;-77
2020/12/18 02:39:43;;;;;;;34.22;21.02;;;7.60;93.50;;;;;;5062657;28;20041;-78
2020/12/18 02:42:09;;;;;;;33.80;22.88;;;7.60;93.40;;;;;;5066597;28;20037;-77
2020/12/18 02:44:35;;;;;;;33.25;22.13;;;7.60;93.40;;;;;;5070888;28;20082;-77
2020/12/18 02:47:00;;;;;;;36.17;21.83;;;7.60;93.40;;;;;;5068721;28;20052;-77
2020/12/18 02:49:26;;;;;;;33.53;22.40;;;7.60;93.30;;;;;;5062964;28;20033;-83
2020/12/18 02:51:52;;;;;;;35.55;22.20;;;7.60;93.20;;;;;;5065904;28;20059;-83
2020/12/18 02:54:17;;;;;;;38.33;23.23;;;7.60;93.20;;;;;;5056849;28;20139;-79
2020/12/18 02:56:43;;;;;;;35.50;21.52;;;7.60;93.10;;;;;;5064867;28;20042;-77
2020/12/18 02:59:09;;;;;;;36.05;22.10;;;7.60;93.00;;;;;;5069030;28;20025;-78
2020/12/18 03:01:34;;;;;;;36.00;22.35;;;7.60;93.00;;;;;;5064586;28;20480;-83
2020/12/18 03:04:00;;;;;;;36.67;21.13;;;7.60;93.00;;;;;;5063455;28;20060;-77
2020/12/18 03:06:26;;;;;;;36.75;21.52;;;7.60;93.10;;;;;;5065140;28;20033;-77
2020/12/18 03:08:52;;;;;;;37.30;20.85;;;7.60;93.10;;;;;;5062917;28;20037;-77
2020/12/18 03:11:18;;;;;;;35.22;20.85;;;7.60;93.10;;;;;;5069725;28;20383;-79
2020/12/18 03:13:44;;;;;;;39.63;20.83;;;7.60;93.20;;;;;;5058947;28;20036;-78
2020/12/18 03:16:11;;;;;;;39.80;20.40;;;7.70;93.20;;;;;;5062152;28;20024;-80
2020/12/18 03:18:38;;;;;;;29.83;19.55;;;7.70;93.20;;;;;;5071378;28;20028;-83
2020/12/18 03:21:03;;;;;;;31.40;19.55;;;7.70;93.10;;;;;;5055206;28;20029;-79
2020/12/18 03:23:29;;;;;;;33.22;21.25;;;7.70;93.10;;;;;;5062284;28;20028;-79
2020/12/18 03:25:55;;;;;;;33.15;19.83;;;7.70;93.00;;;;;;5070783;28;20472;-77
2020/12/18 03:28:20;;;;;;;31.00;20.50;;;7.70;93.00;;;;;;5068157;28;20471;-77
2020/12/18 03:30:46;;;;;;;32.22;20.42;;;7.70;93.00;;;;;;5061650;28;20067;-78
2020/12/18 03:33:11;;;;;;;32.13;20.65;;;7.70;93.00;;;;;;5068593;28;20033;-77
2020/12/18 03:35:37;;;;;;;29.27;19.48;;;7.70;93.00;;;;;;5068286;28;20033;-77
2020/12/18 03:38:03;;;;;;;33.80;21.05;;;7.70;93.00;;;;;;5068425;28;20035;-77
2020/12/18 03:40:29;;;;;;;35.42;22.25;;;7.70;93.10;;;;;;5068214;28;20032;-77
2020/12/18 03:42:54;;;;;;;30.65;21.30;;;7.70;93.10;;;;;;5065385;28;20475;-77
2020/12/18 03:45:20;;;;;;;29.73;21.92;;;7.70;93.00;;;;;;5066273;28;20071;-78
2020/12/18 03:47:45;;;;;;;33.22;22.52;;;7.80;93.10;;;;;;5069417;28;20029;-75
2020/12/18 03:50:11;;;;;;;36.70;23.38;;;7.80;93.10;;;;;;5058971;28;20033;-78
2020/12/18 03:52:37;;;;;;;35.15;22.83;;;7.80;93.00;;;;;;5069136;28;20064;-76
2020/12/18 03:55:03;;;;;;;35.50;23.15;;;7.80;93.10;;;;;;5063870;28;20029;-77
2020/12/18 03:57:29;;;;;;;34.47;23.15;;;7.80;93.00;;;;;;5063782;28;20085;-83
2020/12/18 03:59:54;;;;;;;35.92;23.67;;;7.80;92.90;;;;;;5067665;28;20037;-77
2020/12/18 04:02:20;;;;;;;41.30;24.00;;;7.90;92.90;;;;;;5068333;28;20078;-79
2020/12/18 04:04:45;;;;;;;33.95;22.38;;;7.90;93.00;;;;;;5070628;28;20467;-79
2020/12/18 04:07:14;;;;;;;32.00;22.85;;;7.90;92.90;;;;;;5060657;28;20044;-78
2020/12/18 04:09:44;;;;;;;37.63;22.35;;;7.90;92.90;;;;;;5061451;28;20116;-78
2020/12/18 04:12:11;;;;;;;29.75;21.58;;;8.00;92.80;;;;;;5061538;28;20029;-77
2020/12/18 04:14:36;;;;;;;32.00;22.35;;;8.00;92.80;;;;;;5062892;28;20028;-78
2020/12/18 04:17:05;;;;;;;35.60;22.40;;;8.00;92.80;;;;;;5064061;28;20037;-78
2020/12/18 04:19:32;;;;;;;37.30;23.60;;;8.00;92.80;;;;;;5063267;28;20166;-77
2020/12/18 04:21:58;;;;;;;35.45;21.30;;;7.90;92.90;;;;;;5057395;28;20036;-78
2020/12/18 04:24:23;;;;;;;33.30;21.45;;;8.00;92.90;;;;;;5066681;28;20051;-77
2020/12/18 04:26:49;;;;;;;36.53;23.02;;;8.00;92.90;;;;;;5066494;28;20028;-77
2020/12/18 04:29:16;;;;;;;35.45;22.70;;;8.00;92.80;;;;;;5059745;28;20445;-78
2020/12/18 04:31:41;;;;;;;37.10;21.10;;;8.00;92.80;;;;;;5057339;28;20036;-78
2020/12/18 04:34:07;;;;;;;33.08;21.73;;;8.10;92.80;;;;;;5061829;28;20386;-77
2020/12/18 04:36:33;;;;;;;35.08;20.75;;;8.10;92.70;;;;;;5069750;28;20538;-78
2020/12/18 04:38:59;;;;;;;33.55;20.50;;;8.10;92.70;;;;;;5067429;28;20032;-77
2020/12/18 04:41:26;;;;;;;32.22;21.23;;;8.10;92.80;;;;;;5069293;28;20115;-77
2020/12/18 04:43:56;;;;;;;33.67;21.83;;;8.10;92.70;;;;;;5057829;28;20020;-77
2020/12/18 04:46:23;;;;;;;37.05;21.05;;;8.10;92.60;;;;;;5066668;28;20040;-78
2020/12/18 04:48:50;;;;;;;34.17;19.70;;;8.10;92.60;;;;;;5066486;28;20029;-77
2020/12/18 04:51:21;;;;;;;35.55;22.50;;;8.10;92.60;;;;;;5067983;28;20157;-78
2020/12/18 04:53:51;;;;;;;36.08;21.90;;;8.10;92.60;;;;;;5058787;28;20566;-77
2020/12/18 04:56:21;;;;;;;37.38;21.83;;;8.10;92.60;;;;;;5063167;28;20029;-77
2020/12/18 04:58:50;;;;;;;36.83;22.38;;;8.10;92.60;;;;;;5058489;28;20522;-79
2020/12/18 05:01:20;;;;;;;38.38;21.27;;;8.10;92.60;;;;;;5057264;28;20045;-77
2020/12/18 05:03:46;;;;;;;41.47;22.48;;;8.10;92.70;;;;;;5055644;28;20017;-79
2020/12/18 05:06:12;;;;;;;40.35;23.00;;;8.10;92.70;;;;;;5064166;28;20048;-77
2020/12/18 05:08:38;;;;;;;39.17;23.55;;;8.10;92.70;;;;;;5066845;28;20034;-78
2020/12/18 05:11:23;;;;;;;38.80;21.98;;;8.10;92.80;;;;;;5062216;28;20052;-77
2020/12/18 05:13:54;;;;;;;37.47;22.13;;;8.10;92.70;;;;;;5063008;28;20036;-77
2020/12/18 05:16:20;;;;;;;39.92;22.60;;;8.10;92.70;;;;;;5062400;28;20131;-77
2020/12/18 05:18:47;;;;;;;37.42;23.10;;;8.10;92.70;;;;;;5064088;28;20033;-78
2020/12/18 05:21:13;;;;;;;40.33;23.10;;;8.10;92.70;;;;;;5064496;28;20386;-77
2020/12/18 05:23:43;;;;;;;36.17;22.10;;;8.10;92.70;;;;;;5065386;28;20131;-79
2020/12/18 05:26:10;;;;;;;37.92;21.45;;;8.10;92.70;;;;;;5059234;28;20112;-78
2020/12/18 05:28:41;;;;;;;37.28;20.60;;;8.10;92.70;;;;;;5054947;28;20078;-78
2020/12/18 05:31:15;;;;;;;41.03;22.30;;;8.20;92.70;;;;;;5060404;28;20074;-77
2020/12/18 05:33:42;;;;;;;34.45;21.30;;;8.20;92.70;;;;;;5064818;28;20039;-82
2020/12/18 05:36:08;;;;;;;38.92;22.13;;;8.20;92.70;;;;;;5062512;28;20060;-77
2020/12/18 05:38:38;;;;;;;38.78;21.02;;;8.20;92.70;;;;;;5066260;28;20482;-77
2020/12/18 05:41:05;;;;;;;34.45;21.17;;;8.20;92.80;;;;;;5066031;28;20032;-78
2020/12/18 05:43:37;;;;;;;34.33;20.42;;;8.20;92.80;;;;;;5062723;28;20063;-78
2020/12/18 05:46:16;;;;;;;37.25;21.55;;;8.20;92.70;;;;;;5058097;28;20029;-77
2020/12/18 05:48:54;;;;;;;35.15;19.90;;;8.20;92.70;;;;;;5067175;28;20033;-82
2020/12/18 05:51:46;;;;;;;40.20;21.48;;;8.20;92.80;;;;;;5054591;28;20036;-77
2020/12/18 05:54:15;;;;;;;35.28;20.27;;;8.20;92.80;;;;;;5063398;28;20059;-79
2020/12/18 05:56:50;;;;;;;34.45;20.20;;;8.30;92.80;;;;;;5060051;28;20063;-77
2020/12/18 05:59:19;;;;;;;34.53;20.75;;;8.40;92.70;;;;;;5058893;28;20091;-79
2020/12/18 06:01:45;;;;;;;33.75;20.75;;;8.30;92.60;;;;;;5063127;28;20441;-77
2020/12/18 06:04:17;;;;;;;38.45;21.48;;;8.30;92.70;;;;;;5064483;28;20043;-78
2020/12/18 06:06:53;;;;;;;38.22;22.92;;;8.30;92.80;;;;;;5064035;28;20035;-79
2020/12/18 06:09:21;;;;;;;43.60;24.08;;;8.30;92.90;;;;;;5059666;28;20114;-77
2020/12/18 06:11:48;;;;;;;39.75;23.05;;;8.30;92.90;;;;;;5063569;28;20025;-80
2020/12/18 06:14:15;;;;;;;38.50;23.02;;;8.40;92.80;;;;;;5064139;28;20074;-77
2020/12/18 06:16:46;;;;;;;40.55;25.42;;;8.40;92.80;;;;;;5058501;28;20032;-78
2020/12/18 06:19:15;;;;;;;42.78;25.17;;;8.50;92.60;;;;;;5062627;28;20036;-78
2020/12/18 06:21:48;;;;;;;38.95;23.65;;;8.50;92.50;;;;;;5057475;28;20044;-79
2020/12/18 06:24:14;;;;;;;36.25;23.38;;;8.50;92.50;;;;;;5064050;28;21492;-77
2020/12/18 06:26:40;;;;;;;39.08;23.48;;;8.50;92.40;;;;;;5058220;28;20040;-78
2020/12/18 06:29:07;;;;;;;40.20;25.23;;;8.50;92.30;;;;;;5055061;28;20029;-78
2020/12/18 06:31:34;;;;;;;40.80;24.52;;;8.50;92.20;;;;;;5059564;28;20504;-78
2020/12/18 06:34:02;;;;;;;43.10;24.73;;;8.60;92.10;;;;;;5065291;28;20108;-78
2020/12/18 06:36:46;;;;;;;37.13;21.85;;;8.60;92.10;;;;;;5062829;28;20031;-77
2020/12/18 06:39:29;;;;;;;38.67;21.52;;;8.60;92.00;;;;;;5068836;28;20051;-77
2020/12/18 06:42:15;;;;;;;33.83;21.08;;;8.60;91.90;;;;;;5063222;28;20032;-78
2020/12/18 06:44:42;;;;;;;36.13;21.05;;;8.60;91.80;;;;;;5063722;28;20039;-78
2020/12/18 06:47:14;;;;;;;34.85;20.75;;;8.70;91.60;;;;;;5060420;28;20094;-79
2020/12/18 06:49:59;;;;;;;29.10;19.02;;;8.60;91.60;;;;;;5060594;28;20441;-78
2020/12/18 06:52:43;;;;;;;34.85;19.27;;;8.70;91.40;;;;;;5061769;28;20037;-77
2020/12/18 06:55:31;;;;;;;29.88;17.33;;;8.70;91.20;;;;;;5056891;28;20049;-77
2020/12/18 06:58:09;;;;;;;28.98;18.65;;;8.70;91.10;;;;;;5062571;28;20376;-77
2020/12/18 07:00:48;;;;;;;26.58;15.77;;;8.70;90.90;;;;;;5066642;28;20074;-77
2020/12/18 07:03:45;;;;;;;25.10;13.75;;;8.70;90.80;;;;;;5061757;28;20025;-77
2020/12/18 07:06:20;;;;;;;19.77;12.43;;;8.70;90.60;;;;;;5057161;28;20514;-80
2020/12/18 07:08:46;;;;;;;;;;;8.60;90.20;;;;;;5069666;28;20032;-77
2020/12/18 07:11:14;;;;;;;22.58;11.43;;;8.60;90.10;;;;;;5057779;28;20399;-77
2020/12/18 07:13:46;;;;;;;17.40;11.35;;;8.60;90.20;;;;;;5065389;28;20055;-79
2020/12/18 07:16:12;;;;;;;19.13;10.73;;;8.60;90.40;;;;;;5066180;28;20059;-75
2020/12/18 07:18:40;;;;;;;19.58;10.82;;;8.60;90.50;;;;;;5064539;28;20491;-74
2020/12/18 07:21:13;;;;;;;27.10;13.27;;;8.60;90.40;;;;;;5059979;28;20044;-73
2020/12/18 07:23:45;;;;;;;23.35;12.90;;;8.60;90.60;;;;;;5063581;28;20028;-74
2020/12/18 07:26:13;;;;;;;23.15;13.55;;;8.60;90.80;;;;;;5061641;28;20025;-73
2020/12/18 07:28:39;;;;;;;26.25;14.55;;;8.60;90.80;;;;;;5068247;28;20050;-74
2020/12/18 07:31:14;;;;;;;21.63;14.82;;;8.60;91.10;;;;;;5061803;28;20045;-73
2020/12/18 07:33:39;;;;;;;25.75;15.32;;;8.60;91.10;;;;;;5063955;28;20025;-73
2020/12/18 07:36:05;;;;;;;25.25;16.45;;;8.60;91.10;;;;;;5067759;28;20039;-71
2020/12/18 07:38:33;;;;;;;24.88;14.52;;;8.70;91.10;;;;;;5070033;28;20534;-75
2020/12/18 07:41:04;;;;;;;29.52;16.10;;;8.80;91.00;;;;;;5064620;28;20032;-75
2020/12/18 07:43:32;;;;;;;23.08;14.52;;;8.80;90.90;;;;;;5063057;28;20047;-75
2020/12/18 07:46:02;;;;;;;21.73;12.70;;;8.80;90.90;;;;;;5058242;28;20035;-74
2020/12/18 07:48:34;;;;;;;21.10;12.68;;;8.80;90.80;;;;;;5062544;28;20050;-75
2020/12/18 07:51:04;;;;;;;20.95;12.27;;;8.90;90.60;;;;;;5061468;28;20029;-75
2020/12/18 07:53:33;;;;;;;19.15;12.02;;;8.90;90.50;;;;;;5068404;28;20490;-75
2020/12/18 07:56:06;;;;;;;19.05;12.05;;;8.90;90.50;;;;;;5073420;28;20058;-75
2020/12/18 07:58:33;;;;;;;20.90;11.85;;;8.90;90.50;;;;;;5053945;28;20033;-75
2020/12/18 08:01:10;;;;;;;17.90;10.18;;;8.90;90.50;;;;;;5063350;28;20055;-75
2020/12/18 08:03:42;;;;;;;19.75;10.93;;;8.90;90.50;;;;;;5064775;28;20029;-75
2020/12/18 08:06:13;;;;;;;21.83;10.65;;;8.90;90.30;;;;;;5064059;28;20021;-75
2020/12/18 08:08:39;;;;;;;19.77;9.85;;;8.90;90.20;;;;;;5067031;28;20033;-75
2020/12/18 08:11:13;;;;;;;17.15;9.70;;;8.90;90.20;;;;;;5064795;28;20430;-76
2020/12/18 08:13:40;;;;;;;17.60;10.07;;;9.00;90.00;;;;;;5061913;28;20116;-75
2020/12/18 08:16:18;;;;;;;22.70;10.60;;;9.10;89.70;;;;;;5062361;28;20494;-75
2020/12/18 08:18:51;;;;;;;17.23;9.38;;;9.10;89.70;;;;;;5065942;28;20158;-75
2020/12/18 08:21:25;;;;;;;20.00;9.95;;;9.10;89.50;;;;;;5063531;28;20364;-75
2020/12/18 08:24:07;;;;;;;18.13;9.30;;;9.10;89.60;;;;;;5067069;28;20029;-72
2020/12/18 08:26:37;;;;;;;20.13;10.45;;;9.10;89.50;;;;;;5056626;28;20033;-73
2020/12/18 08:29:04;;;;;;;20.88;12.60;;;9.10;89.40;;;;;;5067895;28;20024;-72
2020/12/18 08:31:33;;;;;;;18.65;11.13;;;9.10;89.40;;;;;;5068811;28;20021;-71
2020/12/18 08:34:08;;;;;;;20.00;10.20;;;9.10;89.20;;;;;;5061213;28;20031;-72
2020/12/18 08:36:45;;;;;;;24.27;11.63;;;9.20;89.20;;;;;;5063179;28;20025;-73
2020/12/18 08:39:11;;;;;;;25.65;15.15;;;9.30;89.10;;;;;;5063611;28;20029;-73
2020/12/18 08:41:51;;;;;;;22.67;11.07;;;9.30;89.00;;;;;;5066816;28;20437;-72
2020/12/18 08:44:19;;;;;;;21.45;8.75;;;9.30;89.00;;;;;;5068602;28;20086;-72
2020/12/18 08:46:45;;;;;;;17.83;9.80;;;9.30;88.90;;;;;;5067952;28;20119;-72
2020/12/18 08:49:27;;;;;;;21.73;12.82;;;9.40;89.00;;;;;;5063229;28;20082;-73
2020/12/18 08:52:03;;;;;;;19.85;9.93;;;9.30;89.00;;;;;;5067260;28;20047;-72
2020/12/18 08:54:34;;;;;;;16.10;8.23;;;9.40;88.80;;;;;;5059063;28;20048;-72
2020/12/18 08:57:16;;;;;;;15.02;8.18;;;9.40;88.90;;;;;;5062309;28;20021;-72
2020/12/18 08:59:58;;;;;;;15.50;8.02;;;9.50;88.90;;;;;;5069573;28;20036;-74
2020/12/18 09:02:25;;;;;;;14.73;9.35;;;9.50;88.70;;;;;;5062016;28;20039;-72
2020/12/18 09:05:09;;;;;;;17.33;8.70;;;9.40;88.80;;;;;;5065833;28;20033;-76
2020/12/18 09:07:50;;;;;;;14.50;8.88;;;9.50;88.70;;;;;;5062440;28;20037;-76
2020/12/18 09:10:50;;;;;;;19.33;9.00;;;9.50;88.70;;;;;;5064080;28;20131;-72
2020/12/18 09:13:21;;;;;;;20.52;8.35;;;9.50;88.80;;;;;;5064299;28;20069;-72
2020/12/18 09:15:50;;;;;;;20.23;8.52;;;9.60;88.80;;;;;;5064389;28;20479;-74
2020/12/18 09:18:23;;;;;;;17.38;8.13;;;9.60;88.60;;;;;;5062700;28;20487;-72
2020/12/18 09:20:48;;;;;;;17.75;7.53;;;9.60;88.50;;;;;;5058154;28;20479;-73
2020/12/18 09:23:16;;;;;;;18.80;7.60;;;9.70;88.30;;;;;;5060808;28;20032;-73
2020/12/18 09:25:49;;;;;;;17.70;7.65;;;9.70;88.00;;;;;;5065619;28;20046;-72
2020/12/18 09:28:20;;;;;;;14.57;8.60;;;9.70;87.90;;;;;;5065390;28;20024;-73
2020/12/18 09:30:56;;;;;;;18.17;8.63;;;9.60;88.00;;;;;;5066466;28;20056;-72
2020/12/18 09:33:25;;;;;;;16.88;8.57;;;9.60;88.00;;;;;;5063385;28;20040;-73
2020/12/18 09:36:11;;;;;;;15.30;8.40;;;9.60;88.00;;;;;;5060081;28;20036;-73
2020/12/18 09:38:42;;;;;;;18.58;8.30;;;9.60;88.10;;;;;;5045788;28;20472;-75
2020/12/18 09:41:13;;;;;;;15.35;9.02;;;9.60;88.10;;;;;;5059963;28;20029;-73
2020/12/18 09:43:39;;;;;;;15.48;10.05;;;9.70;88.00;;;;;;5044554;28;20025;-73
2020/12/18 09:46:11;;;;;;;17.48;9.20;;;9.70;87.80;;;;;;5046447;28;20368;-72
2020/12/18 09:48:41;;;;;;;17.30;9.45;;;9.80;87.60;;;;;;5041985;28;20056;-72
2020/12/18 09:51:07;;;;;;;14.38;8.77;;;9.80;87.20;;;;;;5035771;28;20047;-72
2020/12/18 09:53:33;;;;;;;17.60;8.57;;;9.80;87.00;;;;;;5045379;28;20041;-73
2020/12/18 09:55:59;;;;;;;16.63;8.77;;;9.90;87.10;;;;;;5042714;28;20133;-71
2020/12/18 09:58:25;;;;;;;13.02;8.23;;;10.00;86.10;;;;;;5042918;28;20033;-72
2020/12/18 10:00:51;;;;;;;13.98;7.82;;;10.10;86.00;;;;;;5045134;28;20154;-72
2020/12/18 10:03:16;;;;;;;18.90;8.60;;;10.20;85.60;;;;;;5037885;28;20117;-72
2020/12/18 10:05:46;;;;;;;15.85;8.20;;;10.20;85.40;;;;;;5043153;28;20475;-72
2020/12/18 10:08:12;;;;;;;13.38;7.47;;;10.30;85.00;;;;;;5046344;28;20110;-72
2020/12/18 10:10:37;;;;;;;13.82;7.50;;;10.40;84.40;;;;;;5045222;28;20112;-74
2020/12/18 10:13:03;;;;;;;12.00;6.30;;;10.30;84.30;;;;;;5043203;28;20022;-73
2020/12/18 10:15:28;;;;;;;14.50;6.70;;;10.40;84.60;;;;;;5042801;28;20033;-72
2020/12/18 10:17:55;;;;;;;12.07;6.85;;;10.50;84.00;;;;;;5043028;28;20112;-71
2020/12/18 10:20:21;;;;;;;15.05;6.40;;;10.50;83.90;;;;;;5043586;28;20039;-71
2020/12/18 10:22:47;;;;;;;13.65;6.80;;;10.40;83.80;;;;;;5039266;28;20029;-71
2020/12/18 10:25:13;;;;;;;12.30;5.95;;;10.50;83.90;;;;;;5056035;28;20150;-71
2020/12/18 10:27:38;;;;;;;15.73;7.18;;;10.50;83.90;;;;;;5064709;28;20024;-72
2020/12/18 10:30:07;;;;;;;15.02;6.68;;;10.60;83.70;;;;;;5062032;28;20389;-71
2020/12/18 10:32:34;;;;;;;15.95;6.20;;;10.60;83.20;;;;;;5063677;28;20033;-71
2020/12/18 10:35:00;;;;;;;15.05;6.15;;;10.50;83.20;;;;;;5063156;28;20394;-72
2020/12/18 10:37:27;;;;;;;14.45;5.88;;;10.40;83.60;;;;;;5052806;28;20041;-71
2020/12/18 10:39:53;;;;;;;14.50;5.97;;;10.50;83.40;;;;;;5054990;28;20032;-72
2020/12/18 10:42:19;;;;;;;12.95;5.80;;;10.50;83.50;;;;;;5060959;28;20067;-73
2020/12/18 10:44:48;;;;;;;12.82;5.35;;;10.50;83.00;;;;;;5048951;28;20032;-74
2020/12/18 10:47:13;;;;;;;12.32;6.38;;;10.50;82.90;;;;;;5064092;28;20094;-71
2020/12/18 10:49:39;;;;;;;10.45;4.93;;;10.60;82.80;;;;;;5064498;28;20387;-71
2020/12/18 10:52:05;;;;;;;13.15;5.38;;;10.60;82.50;;;;;;5064972;28;20540;-72
2020/12/18 10:54:31;;;;;;;11.55;4.63;;;10.60;82.60;;;;;;5063282;28;20139;-74
2020/12/18 10:56:57;;;;;;;9.52;4.40;;;10.70;82.90;;;;;;5064699;28;20033;-70
2020/12/18 10:59:26;;;;;;;14.40;4.47;;;10.80;82.30;;;;;;5068413;28;20391;-73
2020/12/18 11:01:55;;;;;;;9.98;4.28;;;10.90;81.60;;;;;;5051664;28;20044;-71
2020/12/18 11:04:21;;;;;;;12.80;5.10;;;10.90;81.70;;;;;;5042656;28;20575;-71
2020/12/18 11:06:47;;;;;;;12.32;4.82;;;11.00;81.40;;;;;;5039487;28;20116;-73
2020/12/18 11:09:13;;;;;;;9.35;4.18;;;10.90;81.40;;;;;;5039951;28;20091;-73
2020/12/18 11:11:39;;;;;;;12.82;4.03;;;10.90;81.60;;;;;;5038184;28;20040;-69
2020/12/18 11:14:05;;;;;;;9.75;3.90;;;11.00;81.50;;;;;;5039132;28;20036;-69
2020/12/18 11:16:32;;;;;;;10.45;4.03;;;11.00;81.20;;;;;;5039719;28;20037;-72
2020/12/18 11:19:01;;;;;;;9.93;3.83;;;11.00;81.00;;;;;;5043162;28;20037;-69
2020/12/18 11:21:30;;;;;;;8.20;3.28;;;11.00;80.80;;;;;;5051384;28;20049;-72
2020/12/18 11:23:57;;;;;;;9.68;3.50;;;11.10;80.60;;;;;;5044527;28;20083;-72
2020/12/18 11:26:24;;;;;;;9.35;3.80;;;11.10;80.60;;;;;;5042187;28;20029;-70
2020/12/18 11:28:50;;;;;;;12.48;3.08;;;11.00;80.20;;;;;;5038925;28;20068;-71
2020/12/18 11:31:16;;;;;;;10.13;3.60;;;11.10;80.00;;;;;;5038095;28;20034;-74
2020/12/18 11:33:42;;;;;;;10.02;3.17;;;11.20;80.20;;;;;;5035898;28;20317;-74
2020/12/18 11:36:08;;;;;;;7.40;2.80;;;11.30;79.80;;;;;;5043758;28;20032;-72
2020/12/18 11:38:33;;;;;;;7.57;3.30;;;11.30;79.70;;;;;;5058927;28;20020;-72
2020/12/18 11:40:59;;;;;;;9.43;3.03;;;11.30;79.60;;;;;;5061413;28;20032;-71
2020/12/18 11:43:24;;;;;;;9.57;2.80;;;11.40;79.30;;;;;;5061686;28;20040;-78
2020/12/18 11:45:50;;;;;;;7.50;3.05;;;11.30;78.80;;;;;;5064195;28;20032;-72
2020/12/18 11:48:16;;;;;;;11.15;3.08;;;11.30;79.10;;;;;;5055270;28;20136;-71
2020/12/18 11:50:41;;;;;;;9.30;3.22;;;11.40;79.00;;;;;;5050325;28;20407;-72
2020/12/18 11:53:09;;;;;;;8.02;3.10;;;11.40;79.00;;;;;;5060043;28;20041;-71
2020/12/18 11:55:35;;;;;;;9.45;3.15;;;11.40;78.50;;;;;;5067097;28;20153;-73
2020/12/18 11:58:01;;;;;;;8.32;3.47;;;11.40;78.60;;;;;;5062907;28;20038;-72
2020/12/18 12:00:26;;;;;;;6.78;3.00;;;11.40;78.40;;;;;;5056998;28;20025;-71
2020/12/18 12:02:52;;;;;;;10.55;2.92;;;11.40;78.10;;;;;;5061023;28;20063;-73
2020/12/18 12:05:20;;;;;;;8.38;2.83;;;11.50;78.00;;;;;;5053857;28;20078;-71
2020/12/18 12:07:46;;;;;;;6.68;2.65;;;11.50;78.10;;;;;;5054153;28;20074;-71
2020/12/18 12:10:13;;;;;;;7.95;3.13;;;11.60;78.00;;;;;;5042668;28;20060;-74
2020/12/18 12:12:39;;;;;;;9.80;2.95;;;11.50;77.50;;;;;;5042118;28;20554;-72
2020/12/18 12:15:06;;;;;;;8.13;2.67;;;11.50;77.70;;;;;;5041637;28;20025;-72
2020/12/18 12:17:32;;;;;;;5.93;2.33;;;11.60;77.70;;;;;;5043912;28;20021;-72
2020/12/18 12:19:57;;;;;;;6.78;2.45;;;11.60;77.30;;;;;;5060712;28;20059;-70
2020/12/18 12:22:23;;;;;;;9.25;2.90;;;11.60;77.30;;;;;;5051996;28;20542;-76
2020/12/18 12:24:50;;;;;;;6.10;2.28;;;11.60;77.10;;;;;;5050262;28;20109;-72
2020/12/18 12:27:19;;;;;;;6.00;2.60;;;11.60;77.20;;;;;;5055226;28;20028;-76
2020/12/18 12:29:45;;;;;;;7.30;2.60;;;11.60;77.10;;;;;;5060870;28;20059;-77
2020/12/18 12:32:10;;;;;;;7.57;2.65;;;11.60;77.50;;;;;;5074729;28;20479;-72
2020/12/18 12:34:36;;;;;;;7.15;2.50;;;11.60;77.50;;;;;;5059627;28;20043;-72
2020/12/18 12:37:01;;;;;;;8.32;2.30;;;11.60;77.30;;;;;;5063408;28;20028;-72
2020/12/18 12:39:27;;;;;;;6.82;2.10;;;11.60;77.60;;;;;;5060719;28;20028;-72
2020/12/18 12:41:53;;;;;;;8.82;3.22;;;11.50;77.20;;;;;;5052899;28;20067;-73
2020/12/18 12:44:19;;;;;;;9.48;5.22;;;11.50;77.60;;;;;;5065725;28;20028;-73